Avon, New Jersey
Current Conditions -  °F | °C
As of 3:35 AM on Friday 24 Oct 2014 (Local Time) from KBLM Reporting Station
Overcast Overcast  
Wind Chill: 52°   Ceiling: 7000
Heat Index: 52°   Visibility: 10mi
Dew Point: 41°   Wind: 10mph
Humidity: 67%   Direction: 300°WNW
Pressure: 29.78"   Gusts: NA
Location:  40.1917°N, 74.0159°W
Report Text: KBLM 240735Z AUTO 30009KT 10SM FEW042 SCT050 OVC070 11/05 A2978 RMK AO1
Loading
Personal Weather Stations






























Interactive Weather Map
Tropical Storm Tracking
New forecast layout! Learn more

10-Day Weather Forecast

Advertisements
Track Severe Weather on mobile